Time;durP1;ratioP1;P1;durP2;ratioP2;P2;SDS_P1;SDS_P2;PMS_P1;PMS_P2;Temp;Humidity;BMP_temperature;BMP_pressure;BME280_temperature;BME280_humidity;BME280_pressure;Samples;Min_cycle;Max_cycle;Signal;HPM_P1;HPM_P2
2023/10/08 00:01:50;;;;;;;0.40;0.40;;;19.60;99.90;;;;;;5012912;28;20054;-80
2023/10/08 00:04:18;;;;;;;1.08;0.73;;;19.60;99.90;;;;;;4996562;28;20028;-80
2023/10/08 00:06:49;;;;;;;0.60;0.60;;;19.60;99.90;;;;;;4994477;28;20026;-80
2023/10/08 00:09:15;;;;;;;0.50;0.50;;;19.60;99.90;;;;;;4995961;28;20038;-80
2023/10/08 00:11:41;;;;;;;0.40;0.40;;;19.60;99.90;;;;;;5011295;28;20531;-81
2023/10/08 00:14:10;;;;;;;0.40;0.40;;;19.50;99.90;;;;;;5003665;28;20021;-80
2023/10/08 00:16:39;;;;;;;0.38;0.38;;;19.50;99.90;;;;;;4997682;28;20034;-81
2023/10/08 00:19:12;;;;;;;0.30;0.30;;;19.50;99.90;;;;;;5011482;28;20052;-80
2023/10/08 00:21:39;;;;;;;0.38;0.38;;;19.50;99.90;;;;;;5011609;28;20216;-80
2023/10/08 00:24:06;;;;;;;0.70;0.70;;;19.50;99.90;;;;;;5009711;28;20036;-80
2023/10/08 00:26:34;;;;;;;1.38;1.38;;;19.40;99.90;;;;;;5145457;22;20055;-80
2023/10/08 00:29:06;;;;;;;0.52;0.52;;;19.40;99.90;;;;;;5041605;28;20842;-80
2023/10/08 00:31:38;;;;;;;0.63;0.37;;;19.20;99.90;;;;;;5042737;28;20430;-80
2023/10/08 00:34:13;;;;;;;3.10;1.27;;;19.30;99.90;;;;;;5040960;28;20287;-81
2023/10/08 00:36:44;;;;;;;0.50;0.50;;;19.30;99.90;;;;;;5040026;28;20124;-80
2023/10/08 00:39:14;;;;;;;1.27;1.20;;;19.30;99.90;;;;;;5023354;28;20021;-81
2023/10/08 00:41:43;;;;;;;0.60;0.60;;;19.20;99.90;;;;;;5023001;28;20021;-81
2023/10/08 00:44:13;;;;;;;0.30;0.30;;;19.30;99.90;;;;;;5023765;28;20481;-80
2023/10/08 00:46:47;;;;;;;1.13;0.65;;;19.30;99.90;;;;;;5024109;28;20021;-81
2023/10/08 00:49:25;;;;;;;0.30;0.30;;;19.30;99.90;;;;;;5048223;28;20052;-79
2023/10/08 00:54:33;;;;;;;0.30;0.30;;;19.20;99.90;;;;;;5050330;28;20044;-80
2023/10/08 00:57:04;;;;;;;0.63;0.40;;;19.20;99.90;;;;;;5023049;28;20025;-81
2023/10/08 00:59:37;;;;;;;1.23;1.13;;;19.10;99.90;;;;;;5042576;28;20021;-81
2023/10/08 01:02:14;;;;;;;2.67;1.40;;;19.10;99.90;;;;;;5040060;28;20020;-80
2023/10/08 01:04:50;;;;;;;0.40;0.40;;;19.10;99.90;;;;;;5036995;28;20056;-81
2023/10/08 01:07:16;;;;;;;0.77;0.77;;;19.10;99.90;;;;;;5037798;28;20048;-81
2023/10/08 01:09:43;;;;;;;0.70;0.70;;;19.00;99.90;;;;;;5019954;28;20489;-81
2023/10/08 01:14:53;;;;;;;0.60;0.60;;;19.10;99.90;;;;;;5038845;28;21557;-83
2023/10/08 01:17:24;;;;;;;0.88;0.60;;;19.10;99.90;;;;;;5037465;28;20029;-82
2023/10/08 01:19:54;;;;;;;0.93;0.57;;;19.10;99.90;;;;;;5038549;28;20036;-82
2023/10/08 01:22:22;;;;;;;1.25;1.17;;;19.20;99.90;;;;;;5023591;28;20049;-80
2023/10/08 01:24:49;;;;;;;0.40;0.40;;;19.10;99.90;;;;;;5040449;28;20036;-82
2023/10/08 01:27:20;;;;;;;0.35;0.35;;;19.10;99.90;;;;;;5055028;28;20107;-83
2023/10/08 01:29:46;;;;;;;0.30;0.30;;;19.00;99.90;;;;;;5042239;28;20033;-82
2023/10/08 01:32:16;;;;;;;0.38;0.38;;;19.00;99.90;;;;;;5040513;28;20032;-82
2023/10/08 01:34:45;;;;;;;0.90;0.38;;;19.00;99.90;;;;;;5027799;28;20120;-82
2023/10/08 01:37:13;;;;;;;0.80;0.80;;;19.10;99.90;;;;;;5020179;28;20021;-82
2023/10/08 01:39:42;;;;;;;1.77;0.70;;;19.10;99.90;;;;;;5039863;28;20051;-82
2023/10/08 01:42:15;;;;;;;0.73;0.73;;;18.90;99.90;;;;;;5040997;28;20364;-82
2023/10/08 01:44:41;;;;;;;0.43;0.43;;;19.00;99.90;;;;;;5046511;28;20028;-82
2023/10/08 01:47:07;;;;;;;1.60;0.93;;;18.90;99.90;;;;;;5037962;28;20517;-82
2023/10/08 01:49:33;;;;;;;1.20;0.47;;;18.90;99.90;;;;;;5022390;28;20127;-81
2023/10/08 01:52:12;;;;;;;0.28;0.28;;;18.90;99.90;;;;;;5037200;28;20029;-82
2023/10/08 01:54:38;;;;;;;0.45;0.45;;;18.90;99.90;;;;;;5035173;28;20143;-82
2023/10/08 01:57:09;;;;;;;0.40;0.40;;;18.90;99.90;;;;;;5020389;28;20484;-81
2023/10/08 01:59:37;;;;;;;0.30;0.30;;;18.90;99.90;;;;;;5039945;28;20029;-81
2023/10/08 02:02:06;;;;;;;0.88;0.88;;;18.90;99.90;;;;;;5039689;28;20108;-80
2023/10/08 02:04:36;;;;;;;0.30;0.30;;;18.80;99.90;;;;;;5037474;28;20040;-80
2023/10/08 02:07:03;;;;;;;0.63;0.43;;;18.80;99.90;;;;;;5022135;28;20043;-80
2023/10/08 02:09:33;;;;;;;0.38;0.38;;;18.70;99.90;;;;;;5039228;28;20061;-81
2023/10/08 02:11:58;;;;;;;1.08;0.57;;;18.70;99.90;;;;;;5036029;28;20576;-81
2023/10/08 02:14:24;;;;;;;0.93;0.93;;;18.60;99.90;;;;;;5021736;28;20271;-80
2023/10/08 02:16:55;;;;;;;0.82;0.82;;;18.60;99.90;;;;;;5021472;28;20029;-81
2023/10/08 02:19:26;;;;;;;0.82;0.70;;;18.70;99.90;;;;;;5040117;28;20519;-80
2023/10/08 02:21:54;;;;;;;0.28;0.28;;;18.60;99.90;;;;;;5012386;28;20033;-80
2023/10/08 02:24:21;;;;;;;0.50;0.50;;;18.50;99.90;;;;;;5038447;28;20025;-80
2023/10/08 02:26:47;;;;;;;0.20;0.20;;;18.60;99.90;;;;;;5038425;28;20036;-80
2023/10/08 02:29:13;;;;;;;0.40;0.40;;;18.60;99.90;;;;;;5038761;28;20755;-80
2023/10/08 02:31:41;;;;;;;0.93;0.93;;;18.70;99.90;;;;;;5039338;28;20070;-80
2023/10/08 02:34:12;;;;;;;0.68;0.68;;;18.60;99.90;;;;;;5025250;28;20033;-82
2023/10/08 02:36:40;;;;;;;0.93;0.50;;;18.50;99.90;;;;;;5041025;28;20049;-81
2023/10/08 02:39:16;;;;;;;0.75;0.75;;;18.50;99.90;;;;;;5026466;28;20033;-82
2023/10/08 02:41:45;;;;;;;0.82;0.82;;;18.50;99.90;;;;;;5040844;28;20040;-82
2023/10/08 02:44:14;;;;;;;0.30;0.30;;;18.50;99.90;;;;;;5043341;28;20060;-82
2023/10/08 02:46:51;;;;;;;0.68;0.68;;;18.50;99.90;;;;;;5042484;28;20021;-82
2023/10/08 02:49:22;;;;;;;1.08;0.98;;;18.50;99.90;;;;;;5045373;28;20135;-82
2023/10/08 02:51:54;;;;;;;0.38;0.38;;;18.50;99.90;;;;;;5025766;28;20037;-82
2023/10/08 02:54:31;;;;;;;0.30;0.30;;;18.50;99.90;;;;;;5025769;28;20078;-82
2023/10/08 02:57:00;;;;;;;0.70;0.70;;;18.50;99.90;;;;;;5042511;28;20521;-82
2023/10/08 02:59:42;;;;;;;0.20;0.20;;;18.50;99.90;;;;;;5044061;28;20341;-82
2023/10/08 03:02:21;;;;;;;0.75;0.75;;;18.50;99.90;;;;;;5044330;28;20029;-82
2023/10/08 03:04:48;;;;;;;0.63;0.63;;;18.60;99.90;;;;;;5023332;28;20147;-82
2023/10/08 03:07:31;;;;;;;0.47;0.47;;;18.50;99.90;;;;;;5043813;28;20017;-82
2023/10/08 03:10:16;;;;;;;0.68;0.68;;;18.50;99.90;;;;;;5044887;28;20135;-82
2023/10/08 03:12:43;;;;;;;1.65;0.45;;;18.50;99.90;;;;;;5049561;28;20021;-83
2023/10/08 03:15:15;;;;;;;0.35;0.35;;;18.50;99.90;;;;;;5047810;28;20028;-82
2023/10/08 03:17:48;;;;;;;0.45;0.45;;;18.40;99.90;;;;;;5048959;28;20031;-83
2023/10/08 03:20:41;;;;;;;3.97;1.00;;;18.40;99.90;;;;;;5048954;28;20033;-82
2023/10/08 03:23:23;;;;;;;0.30;0.30;;;18.40;99.90;;;;;;5049429;28;20029;-82
2023/10/08 03:26:32;;;;;;;0.63;0.43;;;18.20;99.90;;;;;;5030821;28;20205;-83
2023/10/08 03:28:45;;;;;;;0.52;0.52;;;18.30;99.90;;;;;;5044694;28;20041;-81
2023/10/08 03:31:17;;;;;;;1.75;0.95;;;18.30;99.90;;;;;;5030204;28;20024;-82
2023/10/08 03:33:48;;;;;;;3.60;0.40;;;18.30;99.90;;;;;;5046595;28;20033;-82
2023/10/08 03:36:20;;;;;;;1.88;0.90;;;18.20;99.90;;;;;;5048106;28;20060;-82
2023/10/08 03:38:52;;;;;;;0.47;0.47;;;18.30;99.90;;;;;;5047445;28;20115;-82
2023/10/08 03:41:30;;;;;;;0.50;0.50;;;18.30;99.90;;;;;;5038943;28;20055;-82
2023/10/08 03:44:06;;;;;;;0.73;0.50;;;18.20;99.90;;;;;;5055948;28;20087;-83
2023/10/08 03:46:39;;;;;;;0.73;0.70;;;18.20;99.90;;;;;;5046579;28;20456;-81
2023/10/08 03:49:50;;;;;;;0.30;0.30;;;18.20;99.90;;;;;;5048381;28;20121;-82
2023/10/08 03:51:57;;;;;;;0.30;0.30;;;18.10;99.90;;;;;;5043307;28;20388;-82
2023/10/08 03:54:35;;;;;;;0.70;0.70;;;17.90;99.90;;;;;;5047225;28;20025;-82
2023/10/08 03:57:04;;;;;;;0.68;0.68;;;17.90;99.90;;;;;;5028545;28;20060;-82
2023/10/08 03:59:34;;;;;;;1.50;0.93;;;17.90;99.90;;;;;;5027801;28;20469;-83
2023/10/08 04:02:21;;;;;;;0.73;0.65;;;17.90;99.90;;;;;;5047409;28;20029;-81
2023/10/08 04:04:56;;;;;;;0.50;0.50;;;17.90;99.90;;;;;;5044918;28;20021;-83
2023/10/08 04:07:24;;;;;;;1.02;1.02;;;17.90;99.90;;;;;;5029331;28;20424;-83
2023/10/08 04:10:04;;;;;;;3.35;0.73;;;18.00;99.90;;;;;;5047354;28;20037;-82
2023/10/08 04:12:31;;;;;;;0.73;0.68;;;17.90;99.90;;;;;;5022025;28;20029;-82
2023/10/08 04:14:59;;;;;;;0.45;0.45;;;17.90;99.90;;;;;;5046966;28;20037;-82
2023/10/08 04:17:25;;;;;;;0.30;0.30;;;17.90;99.90;;;;;;5028405;28;20021;-82
2023/10/08 04:19:51;;;;;;;0.85;0.85;;;18.00;99.90;;;;;;5046316;28;20031;-82
2023/10/08 04:22:18;;;;;;;0.30;0.30;;;18.00;99.90;;;;;;5046076;28;20485;-82
2023/10/08 04:24:44;;;;;;;0.40;0.40;;;18.00;99.90;;;;;;5044948;28;20021;-82
2023/10/08 04:27:10;;;;;;;0.40;0.40;;;17.90;99.90;;;;;;5047399;28;20028;-82
2023/10/08 04:29:42;;;;;;;0.43;0.43;;;18.00;99.90;;;;;;5045054;28;20017;-82
2023/10/08 04:32:07;;;;;;;0.90;0.90;;;17.90;99.90;;;;;;5044753;28;20082;-82
2023/10/08 04:34:34;;;;;;;2.60;2.00;;;18.00;99.90;;;;;;5044825;28;20017;-82
2023/10/08 04:37:12;;;;;;;0.60;0.60;;;18.00;99.90;;;;;;5028740;28;20512;-82
2023/10/08 04:39:40;;;;;;;0.63;0.63;;;18.00;99.90;;;;;;5026096;28;20028;-82
2023/10/08 04:42:10;;;;;;;0.28;0.28;;;17.90;99.90;;;;;;5024083;28;20384;-80
2023/10/08 04:44:43;;;;;;;0.40;0.40;;;17.90;99.90;;;;;;5045552;28;20497;-80
2023/10/08 04:47:09;;;;;;;0.93;0.90;;;17.80;99.90;;;;;;5041630;28;20408;-80
2023/10/08 04:49:45;;;;;;;1.45;1.38;;;17.80;99.90;;;;;;5043421;28;20025;-81
2023/10/08 04:52:18;;;;;;;1.85;0.40;;;17.80;99.90;;;;;;5036179;28;20043;-81
2023/10/08 04:54:51;;;;;;;0.80;0.50;;;17.80;99.90;;;;;;5024101;28;20485;-81
2023/10/08 04:57:18;;;;;;;0.30;0.30;;;17.80;99.90;;;;;;5040175;28;20029;-81
2023/10/08 04:59:46;;;;;;;0.20;0.20;;;17.80;99.90;;;;;;5041133;28;20530;-81
2023/10/08 05:02:18;;;;;;;0.50;0.50;;;17.80;99.90;;;;;;5040404;28;20021;-80
2023/10/08 05:08:00;;;;;;;1.45;0.45;;;17.80;99.90;;;;;;5041162;28;20268;-81
2023/10/08 05:15:41;;;;;;;0.47;0.47;;;17.70;99.90;;;;;;5043270;28;20377;-81
2023/10/08 05:29:00;;;;;;;0.82;0.82;;;17.90;99.90;;;;;;5041139;28;20449;-81
2023/10/08 05:34:16;;;;;;;0.68;0.68;;;17.80;99.90;;;;;;5052402;28;20021;-81
2023/10/08 05:39:40;;;;;;;0.30;0.30;;;17.80;99.90;;;;;;5063385;28;20128;-82
2023/10/08 05:55:34;;;;;;;0.40;0.40;;;17.90;99.90;;;;;;5040787;28;20396;-83
2023/10/08 06:03:35;;;;;;;0.38;0.38;;;18.10;99.90;;;;;;5040370;28;20175;-83
2023/10/08 06:08:49;;;;;;;0.50;0.50;;;18.10;99.90;;;;;;5039615;28;20040;-82
2023/10/08 06:14:00;;;;;;;0.30;0.30;;;18.00;99.90;;;;;;5040944;28;20048;-82
2023/10/08 06:19:49;;;;;;;0.22;0.22;;;18.10;99.90;;;;;;5041101;28;20112;-82
2023/10/08 06:22:15;;;;;;;0.45;0.45;;;18.00;99.90;;;;;;5040543;28;20495;-82
2023/10/08 06:24:40;;;;;;;0.43;0.43;;;18.10;99.90;;;;;;5040606;28;20048;-81
2023/10/08 06:27:07;;;;;;;0.50;0.50;;;18.00;99.90;;;;;;5023586;28;20503;-82
2023/10/08 06:29:35;;;;;;;0.38;0.38;;;18.00;99.90;;;;;;5041472;28;20493;-82
2023/10/08 06:32:04;;;;;;;0.30;0.30;;;18.00;99.90;;;;;;5023136;28;21023;-82
2023/10/08 06:34:32;;;;;;;0.65;0.65;;;18.10;99.90;;;;;;5039514;28;20178;-82
2023/10/08 06:36:59;;;;;;;0.90;0.90;;;18.10;99.90;;;;;;5040979;28;20408;-82
2023/10/08 06:39:29;;;;;;;0.40;0.40;;;18.10;99.90;;;;;;5040115;28;20118;-82
2023/10/08 06:41:59;;;;;;;0.40;0.40;;;17.80;99.90;;;;;;5022083;28;20032;-82
2023/10/08 06:44:25;;;;;;;0.20;0.20;;;17.60;99.90;;;;;;5041900;28;20029;-82
2023/10/08 06:46:55;;;;;;;0.20;0.20;;;17.50;99.90;;;;;;5040448;28;20063;-82
2023/10/08 06:49:23;;;;;;;0.32;0.32;;;17.30;99.90;;;;;;5021148;28;20037;-82
2023/10/08 06:51:51;;;;;;;0.82;0.52;;;17.20;99.90;;;;;;5037870;28;20392;-82
2023/10/08 06:54:19;;;;;;;0.40;0.40;;;17.00;99.90;;;;;;5041241;28;20025;-83
2023/10/08 06:56:51;;;;;;;0.20;0.20;;;17.00;99.90;;;;;;5041050;28;20028;-82
2023/10/08 06:59:18;;;;;;;0.40;0.40;;;16.80;99.90;;;;;;5022026;28;20127;-83
2023/10/08 07:01:46;;;;;;;1.35;0.95;;;16.80;99.90;;;;;;5039546;28;20485;-82
2023/10/08 07:04:13;;;;;;;0.40;0.40;;;16.70;99.90;;;;;;5022556;28;20473;-82
2023/10/08 07:06:46;;;;;;;0.22;0.22;;;16.50;99.90;;;;;;5037668;28;20041;-83
2023/10/08 07:09:28;;;;;;;0.20;0.20;;;16.40;99.90;;;;;;5021635;28;20098;-82
2023/10/08 07:11:56;;;;;;;0.43;0.43;;;16.40;99.90;;;;;;5019412;28;20481;-81
2023/10/08 07:14:26;;;;;;;0.20;0.20;;;16.30;99.90;;;;;;5042168;28;20108;-82
2023/10/08 07:16:54;;;;;;;0.40;0.40;;;16.20;99.90;;;;;;5038598;28;20097;-82
2023/10/08 07:19:23;;;;;;;0.47;0.38;;;16.30;99.90;;;;;;5040449;28;20025;-82
2023/10/08 07:21:53;;;;;;;0.30;0.30;;;16.30;99.90;;;;;;5038501;28;20060;-82
2023/10/08 07:24:21;;;;;;;0.40;0.40;;;16.40;99.90;;;;;;5025975;28;20036;-82
2023/10/08 07:26:47;;;;;;;0.20;0.20;;;16.30;99.90;;;;;;5026334;28;20049;-82
2023/10/08 07:29:19;;;;;;;0.20;0.20;;;16.20;99.90;;;;;;5043039;28;20040;-82
2023/10/08 07:31:49;;;;;;;0.20;0.20;;;16.20;99.90;;;;;;5026529;28;20029;-82
2023/10/08 07:34:25;;;;;;;0.25;0.25;;;16.20;99.90;;;;;;5043423;28;20063;-82
2023/10/08 07:36:51;;;;;;;0.10;0.10;;;16.30;99.90;;;;;;5040847;28;20029;-82
2023/10/08 07:41:58;;;;;;;0.20;0.20;;;16.10;99.90;;;;;;5043948;28;20024;-82
2023/10/08 07:44:28;;;;;;;0.20;0.20;;;16.10;99.90;;;;;;5040594;28;20053;-82
2023/10/08 07:46:54;;;;;;;0.20;0.20;;;16.20;99.90;;;;;;5041707;28;20029;-82
2023/10/08 07:49:22;;;;;;;0.20;0.20;;;16.20;99.90;;;;;;5042541;28;20059;-82
2023/10/08 07:51:51;;;;;;;0.10;0.10;;;16.20;99.90;;;;;;5024267;28;20040;-82
2023/10/08 07:54:24;;;;;;;0.20;0.20;;;16.20;99.90;;;;;;5025944;28;20024;-82
2023/10/08 07:56:59;;;;;;;;;;;16.20;99.90;;;;;;5041670;28;20018;-81
2023/10/08 07:59:25;;;;;;;0.20;0.20;;;16.20;99.90;;;;;;5023290;28;19912;-82
2023/10/08 08:01:53;;;;;;;0.20;0.20;;;16.10;99.90;;;;;;5043429;28;20082;-82
2023/10/08 08:04:22;;;;;;;0.17;0.17;;;16.10;99.90;;;;;;5019008;28;20035;-83
2023/10/08 08:06:53;;;;;;;0.20;0.20;;;16.10;99.90;;;;;;5040375;28;20064;-82
2023/10/08 08:09:19;;;;;;;0.20;0.20;;;16.10;99.90;;;;;;5035096;28;20029;-82
2023/10/08 08:11:46;;;;;;;0.20;0.20;;;16.10;99.90;;;;;;5015136;28;20475;-82
2023/10/08 08:14:16;;;;;;;0.30;0.30;;;16.10;99.90;;;;;;5038892;28;20524;-82
2023/10/08 08:16:47;;;;;;;0.30;0.30;;;16.10;99.90;;;;;;5038796;28;20275;-81
2023/10/08 08:19:24;;;;;;;0.20;0.20;;;16.20;99.90;;;;;;5027481;28;20037;-82
2023/10/08 08:21:49;;;;;;;0.40;0.40;;;16.30;99.90;;;;;;5018020;28;20036;-83
2023/10/08 08:24:28;;;;;;;0.25;0.25;;;16.30;99.90;;;;;;5041092;28;20421;-83
2023/10/08 08:27:07;;;;;;;0.10;0.10;;;16.30;99.90;;;;;;5042584;28;20037;-82
2023/10/08 08:29:44;;;;;;;0.30;0.30;;;16.20;99.90;;;;;;5039047;28;20152;-82
2023/10/08 08:32:12;;;;;;;0.10;0.10;;;16.40;99.90;;;;;;5017030;28;20464;-82
2023/10/08 08:34:43;;;;;;;0.10;0.10;;;16.50;99.90;;;;;;5036918;28;20118;-82
2023/10/08 08:37:11;;;;;;;0.20;0.20;;;16.60;99.90;;;;;;5041065;28;20021;-82
2023/10/08 08:39:37;;;;;;;0.20;0.20;;;16.60;99.90;;;;;;5042050;28;20048;-83
2023/10/08 08:42:07;;;;;;;0.30;0.30;;;16.70;99.90;;;;;;5048264;28;20600;-82
2023/10/08 08:44:39;;;;;;;0.20;0.20;;;16.80;99.90;;;;;;5023163;28;20122;-83
2023/10/08 08:47:06;;;;;;;0.22;0.22;;;16.80;99.90;;;;;;5041279;28;20029;-83
2023/10/08 08:49:37;;;;;;;0.20;0.20;;;16.80;99.90;;;;;;5037542;28;20513;-83
2023/10/08 08:52:04;;;;;;;0.20;0.20;;;16.80;99.90;;;;;;5039866;28;20021;-83
2023/10/08 08:54:30;;;;;;;0.20;0.20;;;16.90;99.90;;;;;;5030948;28;20013;-83
2023/10/08 08:56:57;;;;;;;0.40;0.40;;;17.00;99.90;;;;;;5043553;28;20558;-83
2023/10/08 08:59:24;;;;;;;0.30;0.30;;;17.00;99.90;;;;;;5042051;28;20025;-85
2023/10/08 09:01:52;;;;;;;0.10;0.10;;;17.00;99.90;;;;;;5024931;28;20032;-84
2023/10/08 09:04:30;;;;;;;0.20;0.20;;;17.00;99.90;;;;;;5042569;28;20376;-85
2023/10/08 09:06:57;;;;;;;0.22;0.22;;;17.00;99.90;;;;;;5027095;28;20032;-84
2023/10/08 09:09:31;;;;;;;0.30;0.30;;;17.00;99.90;;;;;;5027190;28;20084;-84
2023/10/08 09:11:59;;;;;;;0.20;0.20;;;16.90;99.90;;;;;;5044534;28;20310;-85
2023/10/08 09:14:26;;;;;;;0.10;0.10;;;17.00;99.90;;;;;;5021491;28;20060;-84
2023/10/08 09:16:56;;;;;;;0.20;0.20;;;17.10;99.90;;;;;;5045300;28;20044;-84
2023/10/08 09:19:26;;;;;;;0.20;0.20;;;17.20;99.90;;;;;;5047336;28;20037;-84
2023/10/08 09:22:05;;;;;;;0.20;0.20;;;17.30;99.90;;;;;;5044222;28;20024;-82
2023/10/08 09:24:33;;;;;;;0.20;0.20;;;17.30;99.90;;;;;;5020200;28;20018;-83
2023/10/08 09:27:02;;;;;;;0.20;0.20;;;17.30;99.90;;;;;;5027707;28;20151;-83
2023/10/08 09:29:28;;;;;;;33.67;16.63;;;17.20;99.90;;;;;;5026805;28;20067;-82
2023/10/08 09:31:56;;;;;;;0.20;0.20;;;17.30;99.90;;;;;;5045255;28;20171;-83
2023/10/08 09:34:32;;;;;;;0.10;0.10;;;17.40;99.90;;;;;;5044447;28;20080;-83
2023/10/08 09:37:02;;;;;;;0.20;0.20;;;17.40;99.90;;;;;;5043309;28;20480;-82
2023/10/08 09:39:33;;;;;;;0.20;0.20;;;17.30;99.90;;;;;;5029418;28;20437;-82
2023/10/08 09:42:02;;;;;;;0.20;0.20;;;17.30;99.90;;;;;;5046366;28;20384;-82
2023/10/08 09:44:30;;;;;;;0.20;0.20;;;17.30;99.90;;;;;;5041988;28;20063;-83
2023/10/08 09:47:06;;;;;;;0.20;0.20;;;17.20;99.90;;;;;;5039125;28;20620;-82
2023/10/08 09:49:38;;;;;;;0.20;0.20;;;17.10;99.90;;;;;;5043148;28;20485;-83
2023/10/08 09:52:06;;;;;;;0.20;0.20;;;17.10;99.90;;;;;;5044190;28;20036;-82
2023/10/08 09:54:44;;;;;;;0.30;0.30;;;17.00;99.90;;;;;;5044296;28;20044;-83
2023/10/08 09:57:11;;;;;;;0.20;0.20;;;16.90;99.90;;;;;;5044061;28;20124;-82
2023/10/08 09:59:38;;;;;;;0.10;0.10;;;16.90;99.90;;;;;;5027827;28;20154;-82
2023/10/08 10:02:04;;;;;;;0.10;0.10;;;16.80;99.90;;;;;;5044350;28;20033;-82
2023/10/08 10:04:31;;;;;;;0.20;0.20;;;16.90;99.90;;;;;;5044861;28;20021;-82
2023/10/08 10:07:00;;;;;;;0.15;0.15;;;17.00;99.90;;;;;;5028047;28;20048;-82
2023/10/08 10:09:26;;;;;;;0.22;0.22;;;17.10;99.90;;;;;;5046885;28;20477;-83
2023/10/08 10:11:54;;;;;;;0.28;0.28;;;17.20;99.90;;;;;;5044393;28;20374;-82
2023/10/08 10:14:23;;;;;;;2.92;1.60;;;17.40;99.90;;;;;;5057314;28;20036;-80
2023/10/08 10:17:08;;;;;;;0.20;0.20;;;17.50;99.90;;;;;;5042234;28;20031;-81
2023/10/08 10:19:36;;;;;;;0.20;0.20;;;17.50;99.90;;;;;;5067985;28;20032;-82
2023/10/08 10:22:05;;;;;;;0.20;0.20;;;17.50;99.90;;;;;;5056851;28;20021;-82
2023/10/08 10:24:37;;;;;;;0.17;0.17;;;17.50;99.90;;;;;;5046929;28;20021;-82
2023/10/08 10:27:31;;;;;;;0.20;0.20;;;17.50;99.90;;;;;;5024882;28;20056;-83
2023/10/08 10:30:08;;;;;;;0.20;0.20;;;17.60;99.90;;;;;;5041493;28;20090;-83
2023/10/08 10:32:37;;;;;;;0.10;0.10;;;17.50;99.90;;;;;;5042861;28;20029;-82
2023/10/08 10:35:05;;;;;;;0.10;0.10;;;17.40;99.90;;;;;;5043761;28;20023;-82
2023/10/08 10:37:41;;;;;;;0.55;0.55;;;17.30;99.90;;;;;;5058047;28;20045;-82
2023/10/08 10:40:12;;;;;;;0.20;0.20;;;17.20;99.90;;;;;;5026607;28;20544;-83
2023/10/08 10:42:42;;;;;;;0.20;0.20;;;17.10;99.90;;;;;;5022884;28;20028;-83
2023/10/08 10:45:36;;;;;;;0.30;0.30;;;17.00;99.90;;;;;;5028108;28;20021;-83
2023/10/08 10:48:21;;;;;;;0.20;0.20;;;17.00;99.90;;;;;;5040638;28;20160;-83
2023/10/08 10:51:08;;;;;;;0.40;0.40;;;17.10;99.90;;;;;;5016680;28;20044;-82
2023/10/08 10:53:44;;;;;;;0.28;0.28;;;17.30;99.90;;;;;;5040021;28;20028;-83
2023/10/08 10:56:29;;;;;;;0.50;0.50;;;17.30;99.90;;;;;;5019832;28;20599;-84
2023/10/08 10:58:59;;;;;;;0.38;0.38;;;17.30;99.90;;;;;;5041546;28;20021;-82
2023/10/08 11:01:43;;;;;;;0.40;0.40;;;17.40;99.90;;;;;;5027167;28;20051;-82
2023/10/08 11:04:19;;;;;;;0.30;0.30;;;17.40;99.90;;;;;;5038806;28;20540;-82
2023/10/08 11:06:50;;;;;;;0.20;0.20;;;17.50;99.90;;;;;;5041201;28;20067;-80
2023/10/08 11:09:35;;;;;;;0.30;0.30;;;17.50;99.90;;;;;;5025023;28;20391;-80
2023/10/08 11:12:12;;;;;;;0.20;0.20;;;17.50;99.90;;;;;;5027890;28;20025;-80
2023/10/08 11:14:41;;;;;;;0.20;0.20;;;17.60;99.90;;;;;;5031002;28;20056;-80
2023/10/08 11:17:20;;;;;;;0.15;0.15;;;17.50;99.90;;;;;;5043475;28;20892;-81
2023/10/08 11:19:46;;;;;;;0.20;0.20;;;17.60;99.90;;;;;;5026907;28;20116;-80
2023/10/08 11:22:18;;;;;;;0.20;0.20;;;17.70;99.90;;;;;;5041822;28;20536;-80
2023/10/08 11:24:53;;;;;;;0.20;0.20;;;17.70;99.90;;;;;;5043490;28;20020;-81
2023/10/08 11:27:28;;;;;;;0.20;0.20;;;17.60;99.90;;;;;;5023832;28;20452;-80
2023/10/08 11:29:59;;;;;;;0.30;0.30;;;17.50;99.90;;;;;;5015561;28;20336;-81
2023/10/08 11:32:26;;;;;;;0.20;0.20;;;17.60;99.90;;;;;;5043677;28;20029;-80
2023/10/08 11:35:19;;;;;;;0.10;0.10;;;17.40;99.90;;;;;;5042273;28;20032;-81
2023/10/08 11:37:58;;;;;;;0.10;0.10;;;17.40;99.90;;;;;;5040786;28;20048;-81
2023/10/08 11:40:48;;;;;;;0.20;0.20;;;17.50;99.90;;;;;;5023995;28;20250;-80
2023/10/08 11:43:15;;;;;;;0.20;0.20;;;17.60;99.90;;;;;;5041723;28;20837;-81
2023/10/08 11:45:48;;;;;;;0.20;0.20;;;17.60;99.90;;;;;;5041100;28;20381;-80
2023/10/08 11:48:21;;;;;;;0.20;0.20;;;17.70;99.90;;;;;;5032433;28;20035;-81
2023/10/08 11:50:50;;;;;;;0.20;0.20;;;17.80;99.90;;;;;;5029005;28;20136;-80
2023/10/08 11:53:18;;;;;;;0.20;0.20;;;18.00;99.90;;;;;;5024152;28;20233;-80
2023/10/08 11:55:48;;;;;;;0.10;0.10;;;18.00;99.90;;;;;;5022668;28;20535;-81
2023/10/08 11:58:17;;;;;;;0.20;0.20;;;18.00;99.90;;;;;;5023910;28;20091;-80
2023/10/08 12:00:52;;;;;;;0.20;0.20;;;18.00;99.90;;;;;;5040284;28;20021;-79
2023/10/08 12:03:18;;;;;;;0.30;0.30;;;18.00;99.90;;;;;;5017560;28;20028;-80
2023/10/08 12:05:47;;;;;;;0.20;0.20;;;18.10;99.90;;;;;;5022860;28;20041;-80
2023/10/08 12:08:20;;;;;;;0.20;0.20;;;18.20;99.90;;;;;;5022432;28;20029;-82
2023/10/08 12:10:53;;;;;;;0.30;0.30;;;18.20;99.90;;;;;;5038268;28;20029;-83
2023/10/08 12:13:24;;;;;;;1.55;1.08;;;18.10;99.90;;;;;;5039442;28;20029;-83
2023/10/08 12:16:06;;;;;;;0.20;0.20;;;18.00;99.90;;;;;;5034470;28;20060;-83
2023/10/08 12:18:39;;;;;;;0.40;0.40;;;18.00;99.90;;;;;;5014612;28;20037;-83
2023/10/08 12:21:10;;;;;;;0.20;0.20;;;18.00;99.90;;;;;;5017137;28;20060;-83
2023/10/08 12:23:45;;;;;;;0.22;0.22;;;18.10;99.90;;;;;;5026002;28;20057;-89
2023/10/08 12:26:15;;;;;;;0.45;0.45;;;18.00;99.90;;;;;;5047377;28;20028;-91
2023/10/08 12:28:44;;;;;;;0.30;0.30;;;18.00;99.90;;;;;;5043874;28;20032;-82
2023/10/08 12:31:15;;;;;;;0.20;0.20;;;18.10;99.90;;;;;;5038721;28;20473;-84
2023/10/08 12:33:44;;;;;;;0.22;0.22;;;18.00;99.90;;;;;;5038494;28;20500;-85
2023/10/08 12:36:16;;;;;;;0.20;0.20;;;18.10;99.90;;;;;;5041914;28;20025;-82
2023/10/08 12:38:43;;;;;;;0.20;0.20;;;18.20;99.90;;;;;;5021456;28;20025;-80
2023/10/08 12:41:12;;;;;;;0.20;0.20;;;18.20;99.90;;;;;;5043671;28;20025;-80
2023/10/08 12:43:52;;;;;;;0.30;0.30;;;18.20;99.90;;;;;;5039926;28;20083;-80
2023/10/08 12:46:18;;;;;;;1.95;1.13;;;18.20;99.90;;;;;;5021613;28;20142;-79
2023/10/08 12:48:47;;;;;;;0.20;0.20;;;18.10;99.90;;;;;;5025846;28;20021;-80
2023/10/08 12:51:23;;;;;;;1.45;1.20;;;18.00;99.90;;;;;;5027950;28;20033;-81
2023/10/08 12:54:06;;;;;;;0.20;0.20;;;18.10;99.90;;;;;;5039949;28;20036;-85
2023/10/08 12:56:49;;;;;;;0.25;0.25;;;18.20;99.90;;;;;;5023995;28;20445;-83
2023/10/08 12:59:21;;;;;;;0.30;0.30;;;18.10;99.90;;;;;;5024369;28;20504;-84
2023/10/08 13:01:54;;;;;;;0.10;0.10;;;18.20;99.90;;;;;;5021443;28;20076;-90
2023/10/08 13:04:34;;;;;;;0.20;0.20;;;18.30;99.90;;;;;;5028896;28;20120;-87
2023/10/08 13:07:02;;;;;;;0.13;0.13;;;18.20;99.90;;;;;;5026732;28;20033;-87
2023/10/08 13:09:36;;;;;;;0.10;0.10;;;18.20;99.90;;;;;;5046946;28;20461;-87
2023/10/08 13:12:02;;;;;;;0.10;0.10;;;18.20;99.90;;;;;;5045582;28;20049;-88
2023/10/08 13:14:28;;;;;;;0.52;0.30;;;18.10;99.90;;;;;;5029622;28;20029;-86
2023/10/08 13:17:00;;;;;;;0.68;0.68;;;18.00;99.90;;;;;;5042369;28;20025;-83
2023/10/08 13:19:30;;;;;;;0.20;0.20;;;18.00;99.90;;;;;;5032940;28;20017;-82
2023/10/08 13:22:06;;;;;;;0.30;0.30;;;17.90;99.90;;;;;;5022399;28;20025;-83
2023/10/08 13:24:41;;;;;;;0.30;0.30;;;18.00;99.90;;;;;;5022686;28;20235;-86
2023/10/08 13:27:07;;;;;;;0.73;0.60;;;18.00;99.90;;;;;;5021321;28;20132;-81
2023/10/08 13:29:43;;;;;;;0.20;0.20;;;17.90;99.90;;;;;;5021720;28;20335;-85
2023/10/08 13:32:17;;;;;;;0.20;0.20;;;17.90;99.90;;;;;;5025953;28;20358;-89
2023/10/08 13:34:44;;;;;;;0.30;0.30;;;17.80;99.90;;;;;;5026880;28;20025;-87
2023/10/08 13:37:10;;;;;;;0.20;0.20;;;17.80;99.90;;;;;;5027403;28;20032;-87
2023/10/08 13:39:40;;;;;;;0.28;0.28;;;17.80;99.90;;;;;;5042556;28;20243;-86
2023/10/08 13:42:14;;;;;;;0.25;0.25;;;17.80;99.90;;;;;;5027081;28;20021;-88
2023/10/08 13:44:45;;;;;;;0.20;0.20;;;17.80;99.90;;;;;;5027318;28;20692;-86
2023/10/08 13:47:16;;;;;;;0.20;0.20;;;18.00;99.90;;;;;;5025575;28;20021;-87
2023/10/08 13:49:43;;;;;;;0.25;0.25;;;18.10;99.90;;;;;;5041976;28;20086;-86
2023/10/08 13:52:09;;;;;;;0.20;0.20;;;18.10;99.90;;;;;;5042522;28;20079;-86
2023/10/08 13:54:39;;;;;;;0.40;0.40;;;18.30;99.90;;;;;;5042817;28;20495;-84
2023/10/08 13:57:08;;;;;;;0.20;0.20;;;18.40;99.90;;;;;;5036338;28;20052;-83
2023/10/08 13:59:38;;;;;;;0.30;0.30;;;18.40;99.90;;;;;;5042254;28;20017;-87
2023/10/08 14:02:14;;;;;;;0.28;0.25;;;18.40;99.90;;;;;;5035367;28;20146;-84
2023/10/08 14:04:50;;;;;;;0.60;0.60;;;18.30;99.90;;;;;;5021685;28;20389;-87
2023/10/08 14:07:19;;;;;;;0.20;0.20;;;18.30;99.90;;;;;;5024468;28;20068;-87
2023/10/08 14:10:08;;;;;;;0.35;0.35;;;18.20;99.90;;;;;;5044509;28;20096;-84